Time;durP1;ratioP1;P1;durP2;ratioP2;P2;SDS_P1;SDS_P2;PMS_P1;PMS_P2;Temp;Humidity;BMP_temperature;BMP_pressure;BME280_temperature;BME280_humidity;BME280_pressure;Samples;Min_cycle;Max_cycle;Signal;HPM_P1;HPM_P2
2021/07/21 00:01:34;;;;;;;13.20;7.65;;;;;;;13.82;83.89;99207.47;5032088;28;20029;-70
2021/07/21 00:04:00;;;;;;;15.98;7.35;;;;;;;13.68;83.76;99192.28;5012964;28;20044;-71
2021/07/21 00:06:25;;;;;;;13.30;7.13;;;;;;;13.78;83.18;99189.94;5032136;28;20480;-71
2021/07/21 00:08:51;;;;;;;11.98;6.53;;;;;;;13.96;83.10;99211.00;5031695;28;20029;-70
2021/07/21 00:14:03;;;;;;;12.80;7.05;;;;;;;13.88;83.02;99181.31;5032223;28;20502;-71
2021/07/21 00:16:34;;;;;;;14.25;6.80;;;;;;;13.80;83.73;99187.81;5033237;28;20106;-71
2021/07/21 00:19:06;;;;;;;12.60;6.43;;;;;;;13.80;84.14;99198.69;5015361;28;20033;-70
2021/07/21 00:21:31;;;;;;;12.05;6.82;;;;;;;13.70;84.57;99201.06;5032743;28;20029;-70
2021/07/21 00:23:57;;;;;;;10.57;6.18;;;;;;;13.67;84.49;99187.84;5014290;28;20033;-71
2021/07/21 00:26:22;;;;;;;14.30;6.60;;;;;;;13.50;84.16;99181.25;5018571;28;20029;-70
2021/07/21 00:28:47;;;;;;;11.10;7.03;;;;;;;13.46;84.82;99188.97;5027109;28;20022;-71
2021/07/21 00:31:16;;;;;;;11.43;5.63;;;;;;;13.49;85.44;99187.69;5030739;28;20033;-71
2021/07/21 00:33:44;;;;;;;10.43;6.70;;;;;;;13.36;85.53;99177.69;5031507;28;20044;-70
2021/07/21 00:36:09;;;;;;;11.93;6.10;;;;;;;13.45;85.73;99186.47;5031457;28;20034;-71
2021/07/21 00:38:34;;;;;;;10.32;6.72;;;;;;;13.28;85.70;99164.34;5013594;28;20034;-71
2021/07/21 00:41:00;;;;;;;11.68;6.32;;;;;;;13.55;85.36;99182.25;5031304;28;20531;-70
2021/07/21 00:43:27;;;;;;;9.40;6.05;;;;;;;13.52;84.71;99184.59;5030845;28;20040;-70
2021/07/21 00:45:53;;;;;;;11.65;5.63;;;;;;;13.55;84.17;99195.03;5031246;28;20032;-71
2021/07/21 00:48:18;;;;;;;12.77;6.60;;;;;;;13.30;84.75;99175.84;5030495;28;20045;-71
2021/07/21 00:50:44;;;;;;;12.40;6.47;;;;;;;13.24;85.71;99196.50;5031435;28;20041;-71
2021/07/21 00:53:10;;;;;;;10.32;6.60;;;;;;;13.24;86.47;99199.22;5012836;28;20025;-71
2021/07/21 00:55:35;;;;;;;11.65;6.88;;;;;;;13.20;86.13;99176.22;5030804;28;20048;-71
2021/07/21 00:58:01;;;;;;;11.40;6.50;;;;;;;13.22;85.56;99184.19;5031377;28;20476;-71
2021/07/21 01:00:26;;;;;;;10.02;5.95;;;;;;;13.22;85.36;99187.72;5030951;28;20026;-70
2021/07/21 01:02:53;;;;;;;11.45;6.30;;;;;;;13.26;85.61;99186.31;5030471;28;20502;-71
2021/07/21 01:05:27;;;;;;;16.42;7.00;;;;;;;13.28;85.57;99183.34;5031706;28;20108;-71
2021/07/21 01:07:53;;;;;;;12.25;6.63;;;;;;;13.22;86.04;99178.75;5030812;28;20041;-71
2021/07/21 01:10:20;;;;;;;11.95;6.70;;;;;;;13.15;85.20;99178.75;5013623;28;20057;-70
2021/07/21 01:12:56;;;;;;;12.38;6.00;;;;;;;13.14;84.72;99163.50;5030454;28;20072;-71
2021/07/21 01:15:32;;;;;;;9.70;6.03;;;;;;;13.23;85.46;99192.13;4994837;28;20076;-70
2021/07/21 01:18:03;;;;;;;10.48;5.82;;;;;;;13.13;85.33;99178.13;5027428;28;20475;-71
2021/07/21 01:20:46;;;;;;;13.95;6.78;;;;;;;13.21;85.70;99188.78;5034898;28;20064;-71
2021/07/21 01:23:48;;;;;;;12.15;6.55;;;;;;;13.06;86.64;99182.72;5033515;28;20056;-71
2021/07/21 01:26:26;;;;;;;10.48;5.72;;;;;;;13.05;85.76;99183.78;5033255;28;20029;-69
2021/07/21 01:28:55;;;;;;;11.18;6.15;;;;;;;12.93;85.84;99154.53;5034520;28;20426;-69
2021/07/21 01:31:33;;;;;;;10.50;5.95;;;;;;;12.98;86.31;99188.38;5016366;28;20403;-69
2021/07/21 01:34:00;;;;;;;14.25;6.63;;;;;;;12.99;85.72;99158.28;5034062;28;20150;-69
2021/07/21 01:36:29;;;;;;;12.60;6.03;;;;;;;13.02;85.73;99195.06;5034448;28;20036;-69
2021/07/21 01:38:57;;;;;;;;;;;;;;;13.02;86.73;99189.63;5034198;28;20037;-69
2021/07/21 01:41:28;;;;;;;11.13;5.45;;;;;;;12.76;85.84;99171.44;5016741;28;19956;-69
2021/07/21 01:44:16;;;;;;;9.63;5.90;;;;;;;12.80;86.90;99186.28;5033431;28;20029;-71
2021/07/21 01:46:43;;;;;;;12.95;6.25;;;;;;;12.67;87.49;99187.09;5033967;28;20514;-69
2021/07/21 01:49:10;;;;;;;13.05;6.63;;;;;;;12.47;88.04;99179.78;5016364;28;20034;-69
2021/07/21 01:51:36;;;;;;;11.52;6.55;;;;;;;12.23;88.46;99153.22;5021938;28;20091;-69
2021/07/21 01:54:03;;;;;;;10.85;6.15;;;;;;;12.40;88.50;99186.25;5016717;28;20021;-69
2021/07/21 01:56:33;;;;;;;12.40;6.05;;;;;;;12.60;87.90;99180.84;5033921;28;20033;-69
2021/07/21 01:58:59;;;;;;;14.00;6.03;;;;;;;12.47;88.23;99187.94;5033444;28;20028;-69
2021/07/21 02:01:28;;;;;;;12.05;6.15;;;;;;;12.44;88.55;99185.63;5033027;28;20042;-69
2021/07/21 02:03:59;;;;;;;11.48;6.50;;;;;;;12.31;88.31;99165.75;5015867;28;20057;-69
2021/07/21 02:06:26;;;;;;;15.30;6.20;;;;;;;12.35;88.60;99186.84;5033730;28;20032;-69
2021/07/21 02:08:57;;;;;;;10.20;6.32;;;;;;;12.33;88.62;99174.53;5032586;28;20096;-69
2021/07/21 02:11:24;;;;;;;10.15;6.15;;;;;;;12.44;88.11;99177.50;5033527;28;20029;-69
2021/07/21 02:13:50;;;;;;;12.35;6.85;;;;;;;12.49;88.08;99168.72;5015672;28;20104;-69
2021/07/21 02:16:17;;;;;;;10.10;6.43;;;;;;;12.46;88.52;99180.81;5016391;28;20027;-69
2021/07/21 02:18:43;;;;;;;15.90;7.20;;;;;;;12.49;88.47;99174.13;5033411;28;20036;-70
2021/07/21 02:21:09;;;;;;;14.07;7.38;;;;;;;12.42;88.42;99170.59;5015724;28;20486;-68
2021/07/21 02:23:35;;;;;;;16.10;7.95;;;;;;;12.32;88.01;99179.13;5032965;28;20031;-69
2021/07/21 02:26:01;;;;;;;14.60;7.32;;;;;;;12.16;88.91;99157.81;5033382;28;20450;-68
2021/07/21 02:28:29;;;;;;;12.63;7.85;;;;;;;12.32;88.87;99162.84;5032038;28;20032;-69
2021/07/21 02:30:58;;;;;;;17.27;8.10;;;;;;;12.31;88.72;99173.91;5015510;28;20133;-69
2021/07/21 02:33:31;;;;;;;17.60;7.90;;;;;;;12.28;89.38;99181.41;5029481;28;20406;-69
2021/07/21 02:35:56;;;;;;;12.18;7.70;;;;;;;12.12;89.17;99168.22;5033877;28;20025;-69
2021/07/21 02:38:22;;;;;;;18.63;7.55;;;;;;;12.15;89.74;99172.41;5032845;28;20080;-69
2021/07/21 02:40:47;;;;;;;17.27;7.93;;;;;;;12.00;90.07;99157.16;5013938;28;20025;-69
2021/07/21 02:43:13;;;;;;;14.65;8.35;;;;;;;12.07;90.06;99171.53;5030364;28;20546;-71
2021/07/21 02:45:38;;;;;;;20.25;8.00;;;;;;;11.92;90.29;99172.75;5033562;28;20027;-69
2021/07/21 02:48:05;;;;;;;23.30;8.45;;;;;;;12.00;90.33;99186.16;5015233;28;20091;-69
2021/07/21 02:50:31;;;;;;;14.65;7.63;;;;;;;11.89;90.58;99165.84;5033451;28;20033;-69
2021/07/21 02:53:04;;;;;;;13.32;7.30;;;;;;;11.98;90.08;99183.63;5031505;28;20040;-69
2021/07/21 02:55:42;;;;;;;14.52;7.60;;;;;;;11.98;90.06;99191.75;5033454;28;20033;-69
2021/07/21 02:58:37;;;;;;;15.57;6.80;;;;;;;12.02;90.82;99192.19;5028567;28;20039;-69
2021/07/21 03:01:03;;;;;;;14.45;6.68;;;;;;;11.58;89.95;99128.38;5012070;28;20030;-76
2021/07/21 03:03:31;;;;;;;16.08;6.40;;;;;;;11.75;90.13;99167.66;5014876;28;20032;-75
2021/07/21 03:06:03;;;;;;;12.77;7.28;;;;;;;11.82;90.99;99183.94;5018781;28;20026;-75
2021/07/21 03:08:29;;;;;;;19.52;7.80;;;;;;;11.78;90.64;99194.34;5027361;28;20087;-75
2021/07/21 03:10:57;;;;;;;16.10;8.45;;;;;;;11.82;91.30;99187.50;5015749;28;20036;-75
2021/07/21 03:13:28;;;;;;;19.55;8.13;;;;;;;11.76;91.13;99187.44;5014761;28;20116;-75
2021/07/21 03:15:54;;;;;;;15.63;8.38;;;;;;;11.62;91.74;99178.44;5046978;28;20074;-75
2021/07/21 03:18:24;;;;;;;16.98;8.40;;;;;;;11.59;91.41;99174.25;5033974;28;20033;-75
2021/07/21 03:20:54;;;;;;;13.30;7.75;;;;;;;11.66;91.67;99197.81;5015621;28;20028;-76
2021/07/21 03:23:21;;;;;;;12.15;6.70;;;;;;;11.54;91.45;99184.84;5032507;28;20040;-74
2021/07/21 03:25:49;;;;;;;12.50;7.38;;;;;;;11.66;90.99;99192.41;5031971;28;20028;-72
2021/07/21 03:28:14;;;;;;;15.48;6.93;;;;;;;11.87;90.65;99202.34;5014167;28;20033;-73
2021/07/21 03:30:40;;;;;;;16.80;7.32;;;;;;;11.44;90.72;99143.72;5013371;28;20029;-72
2021/07/21 03:33:06;;;;;;;19.15;7.43;;;;;;;11.74;89.88;99203.94;5014438;28;20156;-72
2021/07/21 03:35:33;;;;;;;14.15;8.25;;;;;;;11.49;90.41;99172.94;5020263;28;20045;-72
2021/07/21 03:37:59;;;;;;;14.68;8.57;;;;;;;11.58;90.76;99205.09;5014236;28;20030;-72
2021/07/21 03:40:27;;;;;;;15.43;8.80;;;;;;;11.54;90.77;99209.22;5024049;28;20032;-72
2021/07/21 03:42:54;;;;;;;16.27;9.15;;;;;;;11.59;91.30;99214.91;5031003;28;20021;-72
2021/07/21 03:45:22;;;;;;;20.10;9.25;;;;;;;11.61;92.33;99212.81;5029731;28;20036;-72
2021/07/21 03:47:48;;;;;;;16.35;8.30;;;;;;;11.49;92.03;99200.88;5030792;28;20018;-72
2021/07/21 03:50:18;;;;;;;15.43;7.88;;;;;;;11.57;92.22;99216.13;5018367;28;20040;-71
2021/07/21 03:52:44;;;;;;;15.65;7.55;;;;;;;11.58;92.59;99223.22;5029370;28;20028;-71
2021/07/21 03:55:11;;;;;;;15.55;8.20;;;;;;;11.60;92.34;99211.13;5013793;28;20029;-71
2021/07/21 03:57:37;;;;;;;12.77;7.45;;;;;;;11.67;91.79;99222.03;5029288;28;20037;-69
2021/07/21 04:00:13;;;;;;;15.45;8.90;;;;;;;11.54;91.81;99203.81;5026937;28;20052;-74
2021/07/21 04:02:40;;;;;;;23.55;10.25;;;;;;;11.70;91.67;99224.34;5010785;28;20033;-69
2021/07/21 04:05:08;;;;;;;25.08;11.48;;;;;;;11.68;90.75;99231.00;5027259;28;20025;-67
2021/07/21 04:07:36;;;;;;;16.88;10.10;;;;;;;11.81;90.34;99231.06;5026759;28;20108;-69
2021/07/21 04:10:04;;;;;;;16.08;8.60;;;;;;;11.94;91.00;99235.75;5030471;28;20123;-72
2021/07/21 04:12:31;;;;;;;16.00;8.90;;;;;;;11.65;89.51;99199.69;5030509;28;20022;-73
2021/07/21 04:14:57;;;;;;;18.35;8.27;;;;;;;11.81;89.58;99225.63;5044576;28;20394;-71
2021/07/21 04:17:23;;;;;;;11.95;7.03;;;;;;;11.83;89.88;99237.13;5051021;28;20021;-71
2021/07/21 04:19:50;;;;;;;16.02;7.72;;;;;;;11.86;89.93;99250.31;5032079;28;20033;-73
2021/07/21 04:22:19;;;;;;;17.90;9.40;;;;;;;11.89;90.02;99246.34;5046792;28;20413;-73
2021/07/21 04:24:45;;;;;;;17.70;11.10;;;;;;;11.94;90.64;99242.00;5022194;28;20493;-73
2021/07/21 04:27:11;;;;;;;19.30;10.80;;;;;;;12.01;90.07;99244.75;5013150;28;20064;-71
2021/07/21 04:29:38;;;;;;;15.98;9.93;;;;;;;12.06;90.45;99239.56;5031622;28;20029;-73
2021/07/21 04:32:04;;;;;;;14.63;8.60;;;;;;;12.20;90.06;99238.56;5030136;28;20376;-71
2021/07/21 04:34:30;;;;;;;15.38;8.00;;;;;;;12.20;89.13;99221.44;5013635;28;20391;-74
2021/07/21 04:36:56;;;;;;;18.17;9.00;;;;;;;12.48;89.02;99249.31;5032409;28;20025;-74
2021/07/21 04:39:21;;;;;;;15.20;8.52;;;;;;;12.57;88.68;99240.97;5032423;28;20108;-69
2021/07/21 04:41:52;;;;;;;14.27;8.00;;;;;;;12.73;87.47;99243.28;5030528;28;20495;-69
2021/07/21 04:44:19;;;;;;;16.55;8.55;;;;;;;12.74;87.01;99233.28;5012323;28;20106;-70
2021/07/21 04:46:45;;;;;;;17.30;7.13;;;;;;;12.71;86.70;99231.81;5022952;28;20436;-69
2021/07/21 04:49:15;;;;;;;14.27;8.32;;;;;;;12.77;86.91;99233.69;5031109;28;20065;-69
2021/07/21 04:51:41;;;;;;;13.75;7.82;;;;;;;12.87;86.69;99253.13;5034019;28;20111;-64
2021/07/21 04:54:06;;;;;;;11.70;7.95;;;;;;;12.98;86.20;99253.56;5032133;28;20108;-63
2021/07/21 04:56:32;;;;;;;12.90;7.75;;;;;;;13.05;86.36;99259.84;5033206;28;20033;-65
2021/07/21 04:58:58;;;;;;;13.18;7.13;;;;;;;13.17;86.01;99247.28;5033719;28;20066;-64
2021/07/21 05:01:23;;;;;;;14.77;7.45;;;;;;;13.29;85.73;99250.25;5034375;28;20021;-71
2021/07/21 05:03:49;;;;;;;17.17;7.18;;;;;;;13.37;85.00;99228.31;5015739;28;20026;-71
2021/07/21 05:06:14;;;;;;;10.57;6.50;;;;;;;13.67;84.55;99255.00;5034682;28;20041;-72
2021/07/21 05:08:40;;;;;;;12.35;6.97;;;;;;;13.72;84.48;99236.16;5017071;28;20022;-72
2021/07/21 05:11:05;;;;;;;11.18;6.55;;;;;;;13.79;83.96;99240.53;5034365;28;20033;-73
2021/07/21 05:13:32;;;;;;;11.95;6.85;;;;;;;13.90;83.66;99230.06;5034973;28;20444;-70
2021/07/21 05:15:58;;;;;;;16.83;7.15;;;;;;;14.28;84.01;99253.75;5035629;28;20021;-71
2021/07/21 05:18:23;;;;;;;14.80;7.50;;;;;;;14.29;83.74;99239.94;5016756;28;20025;-71
2021/07/21 05:20:49;;;;;;;15.05;7.68;;;;;;;14.51;82.65;99248.63;5034842;28;20444;-71
2021/07/21 05:23:14;;;;;;;16.05;7.72;;;;;;;14.58;82.23;99241.28;5034815;28;20088;-71
2021/07/21 05:25:40;;;;;;;15.50;7.47;;;;;;;14.85;81.97;99249.28;5033780;28;20399;-65
2021/07/21 05:28:06;;;;;;;14.95;7.60;;;;;;;14.90;81.41;99241.28;5033656;28;20017;-65
2021/07/21 05:30:32;;;;;;;14.55;7.97;;;;;;;15.17;80.31;99262.88;5023399;28;20430;-65
2021/07/21 05:32:57;;;;;;;11.15;6.60;;;;;;;15.46;78.33;99255.94;5033777;28;20025;-71
2021/07/21 05:35:23;;;;;;;12.05;6.70;;;;;;;15.63;78.12;99272.53;5028846;28;20033;-66
2021/07/21 05:37:48;;;;;;;9.57;5.85;;;;;;;15.60;75.58;99267.53;5033630;28;20028;-67
2021/07/21 05:40:14;;;;;;;12.95;6.50;;;;;;;15.78;76.70;99271.16;5033900;28;20495;-70
2021/07/21 05:42:39;;;;;;;11.43;6.68;;;;;;;16.04;76.66;99273.84;5028600;28;20138;-69
2021/07/21 05:45:05;;;;;;;13.27;5.47;;;;;;;16.28;75.55;99278.38;5020478;28;20033;-70
2021/07/21 05:47:30;;;;;;;9.68;5.95;;;;;;;16.57;73.69;99284.09;5026443;28;20041;-67
2021/07/21 05:49:56;;;;;;;21.65;6.22;;;;;;;16.69;73.58;99282.25;5034097;28;20540;-68
2021/07/21 05:52:21;;;;;;;11.35;6.00;;;;;;;16.82;73.80;99282.09;5033258;28;20029;-67
2021/07/21 05:54:46;;;;;;;14.52;6.80;;;;;;;16.80;73.54;99262.38;5032223;28;20044;-67
2021/07/21 05:57:12;;;;;;;13.55;8.10;;;;;;;17.07;73.24;99281.09;5032715;28;20021;-67
2021/07/21 05:59:37;;;;;;;10.15;6.40;;;;;;;17.17;72.29;99277.78;5033548;28;20475;-67
2021/07/21 06:02:03;;;;;;;11.40;6.88;;;;;;;17.39;71.36;99278.06;5032126;28;20021;-67
2021/07/21 06:04:28;;;;;;;11.13;6.38;;;;;;;17.59;71.08;99286.75;5031560;28;20068;-68
2021/07/21 06:06:54;;;;;;;12.52;6.45;;;;;;;17.78;70.17;99284.72;5033110;28;20033;-67
2021/07/21 06:09:19;;;;;;;10.02;6.60;;;;;;;18.08;70.09;99281.91;5033257;28;20026;-68
2021/07/21 06:11:45;;;;;;;12.43;6.32;;;;;;;18.27;69.28;99276.25;5033220;28;20470;-66
2021/07/21 06:14:10;;;;;;;11.23;6.43;;;;;;;18.49;68.29;99277.25;5033545;28;20032;-67
2021/07/21 06:16:36;;;;;;;8.75;5.90;;;;;;;18.59;67.39;99262.91;5030973;28;20021;-66
2021/07/21 06:19:02;;;;;;;11.82;5.75;;;;;;;18.95;65.88;99291.06;5036570;28;20073;-68
2021/07/21 06:21:27;;;;;;;12.80;5.75;;;;;;;18.89;66.03;99290.13;5027268;28;20075;-74
2021/07/21 06:23:53;;;;;;;8.52;5.47;;;;;;;19.08;65.61;99289.91;5005915;28;20079;-76
2021/07/21 06:26:18;;;;;;;9.75;5.57;;;;;;;19.14;64.56;99272.47;5009591;28;20516;-64
2021/07/21 06:28:44;;;;;;;8.60;5.28;;;;;;;19.34;65.18;99302.16;5028231;28;20021;-63
2021/07/21 06:31:09;;;;;;;8.50;5.75;;;;;;;19.62;64.47;99291.09;5022469;28;20027;-63
2021/07/21 06:33:35;;;;;;;9.13;5.63;;;;;;;19.89;62.74;99288.50;5033116;28;20044;-68
2021/07/21 06:36:02;;;;;;;14.50;5.68;;;;;;;20.02;63.11;99275.50;5032916;28;20029;-65
2021/07/21 06:38:28;;;;;;;8.68;5.57;;;;;;;20.43;62.11;99301.59;5032299;28;20091;-70
2021/07/21 06:40:53;;;;;;;9.68;6.13;;;;;;;20.53;61.56;99276.16;5033570;28;20021;-72
2021/07/21 06:43:21;;;;;;;11.10;5.97;;;;;;;20.97;60.48;99298.13;5031610;28;20083;-78
2021/07/21 06:45:46;;;;;;;12.85;5.68;;;;;;;21.73;58.89;99303.50;4996887;28;20033;-74
2021/07/21 06:48:11;;;;;;;8.98;5.03;;;;;;;22.30;56.22;99300.00;5007855;28;20033;-69
2021/07/21 06:50:37;;;;;;;8.80;5.47;;;;;;;22.44;55.78;99305.03;5025417;28;20056;-70
2021/07/21 06:53:03;;;;;;;7.88;5.35;;;;;;;23.97;52.92;99304.44;5025614;28;20030;-70
2021/07/21 06:55:28;;;;;;;8.68;5.10;;;;;;;25.39;47.94;99316.03;5032500;28;20472;-73
2021/07/21 06:57:54;;;;;;;7.22;5.13;;;;;;;26.72;43.73;99291.69;5032067;28;20480;-72
2021/07/21 07:00:19;;;;;;;8.27;4.97;;;;;;;28.00;41.25;99284.97;5032515;28;20120;-72
2021/07/21 07:02:44;;;;;;;12.85;5.72;;;;;;;28.60;39.51;99298.00;5014533;28;20487;-72
2021/07/21 07:05:10;;;;;;;8.65;4.95;;;;;;;29.83;37.18;99311.88;5014959;28;20025;-71
2021/07/21 07:07:36;;;;;;;10.40;5.47;;;;;;;29.27;37.84;99316.88;5032665;28;20033;-73
2021/07/21 07:10:03;;;;;;;7.60;4.28;;;;;;;30.31;36.26;99284.09;5031976;28;20025;-72
2021/07/21 07:12:29;;;;;;;11.90;5.68;;;;;;;31.81;35.02;99320.28;5006847;28;20052;-72
2021/07/21 07:14:54;;;;;;;9.27;5.65;;;;;;;32.45;33.37;99305.44;5020333;28;20025;-71
2021/07/21 07:17:20;;;;;;;8.95;5.30;;;;;;;32.30;34.05;99315.22;5013267;28;20065;-72
2021/07/21 07:19:45;;;;;;;7.32;4.95;;;;;;;33.05;31.64;99314.69;5020288;28;20026;-69
2021/07/21 07:22:11;;;;;;;7.40;5.32;;;;;;;33.14;31.19;99309.84;5025498;28;20028;-72
2021/07/21 07:24:36;;;;;;;7.78;5.18;;;;;;;33.54;31.47;99304.59;5032129;28;20034;-72
2021/07/21 07:27:03;;;;;;;11.02;5.32;;;;;;;33.71;30.60;99303.59;5014420;28;20026;-72
2021/07/21 07:29:29;;;;;;;6.93;4.80;;;;;;;33.97;31.06;99313.72;5032683;28;20116;-77
2021/07/21 07:31:54;;;;;;;9.60;5.22;;;;;;;33.60;31.03;99308.00;5031527;28;20100;-70
2021/07/21 07:34:20;;;;;;;10.35;4.82;;;;;;;33.07;33.08;99306.78;5029583;28;20568;-70
2021/07/21 07:36:46;;;;;;;8.52;4.88;;;;;;;33.86;31.15;99299.31;5026112;28;20083;-69
2021/07/21 07:39:13;;;;;;;8.57;5.15;;;;;;;35.22;29.55;99280.50;5031609;28;20021;-69
2021/07/21 07:41:39;;;;;;;5.70;4.30;;;;;;;34.88;29.85;99296.72;5031810;28;20068;-70
2021/07/21 07:44:06;;;;;;;6.63;4.22;;;;;;;35.78;29.68;99280.50;5032152;28;20075;-69
2021/07/21 07:46:32;;;;;;;9.68;4.60;;;;;;;35.51;29.38;99297.03;5032357;28;20082;-72
2021/07/21 07:49:00;;;;;;;5.72;4.35;;;;;;;35.89;28.04;99278.78;5032445;28;20026;-74
2021/07/21 07:51:29;;;;;;;6.25;4.25;;;;;;;35.46;28.30;99285.22;5017190;28;20071;-69
2021/07/21 07:53:54;;;;;;;9.93;4.95;;;;;;;36.31;28.31;99289.56;5031294;28;20033;-66
2021/07/21 07:56:20;;;;;;;7.55;4.78;;;;;;;35.77;28.34;99287.31;5031898;28;20030;-73
2021/07/21 07:58:45;;;;;;;9.00;4.35;;;;;;;35.92;27.02;99288.50;5029353;28;20108;-69
2021/07/21 08:01:10;;;;;;;7.70;4.50;;;;;;;35.94;28.84;99277.72;5030835;28;20379;-72
2021/07/21 08:03:36;;;;;;;8.65;5.03;;;;;;;35.77;28.16;99273.25;5023568;28;20033;-67
2021/07/21 08:06:02;;;;;;;8.63;4.38;;;;;;;36.36;27.97;99274.38;5024589;28;20498;-73
2021/07/21 08:08:27;;;;;;;8.00;4.28;;;;;;;35.93;28.12;99265.63;5030528;28;20032;-77
2021/07/21 08:10:53;;;;;;;6.95;4.45;;;;;;;36.34;28.04;99274.75;5010277;28;20021;-73
2021/07/21 08:13:24;;;;;;;6.32;4.63;;;;;;;36.25;27.46;99254.41;5029330;28;20037;-74
2021/07/21 08:15:50;;;;;;;7.40;4.32;;;;;;;36.41;27.48;99266.47;5027220;28;20399;-75
2021/07/21 08:18:16;;;;;;;8.65;4.65;;;;;;;37.10;26.82;99260.47;5041674;28;20033;-69
2021/07/21 08:20:45;;;;;;;9.25;4.75;;;;;;;36.92;26.62;99270.47;5030889;28;20430;-69
2021/07/21 08:23:11;;;;;;;7.80;4.30;;;;;;;36.71;26.99;99270.81;5030632;28;20029;-69
2021/07/21 08:25:37;;;;;;;7.25;4.75;;;;;;;36.49;26.86;99266.66;5029707;28;20112;-70
2021/07/21 08:28:03;;;;;;;6.28;4.80;;;;;;;36.23;27.35;99270.03;5013201;28;20108;-69
2021/07/21 08:30:29;;;;;;;10.27;4.28;;;;;;;36.49;27.53;99261.81;5030981;28;20040;-75
2021/07/21 08:32:55;;;;;;;6.45;3.97;;;;;;;36.58;26.60;99248.38;5031218;28;20021;-74
2021/07/21 08:35:28;;;;;;;5.82;4.18;;;;;;;37.24;27.70;99266.38;5031424;28;20025;-72
2021/07/21 08:37:55;;;;;;;7.00;4.00;;;;;;;37.78;26.56;99244.88;5035391;28;20056;-78
2021/07/21 08:40:21;;;;;;;7.22;3.95;;;;;;;38.19;25.95;99264.19;5024546;28;20498;-76
2021/07/21 08:42:47;;;;;;;7.57;4.28;;;;;;;37.21;25.80;99250.22;5013025;28;20052;-74
2021/07/21 08:45:13;;;;;;;6.45;4.40;;;;;;;38.50;25.37;99263.94;5031688;28;20434;-73
2021/07/21 08:47:39;;;;;;;6.53;4.47;;;;;;;37.89;26.40;99251.53;5026198;28;20571;-74
2021/07/21 08:50:07;;;;;;;11.77;4.53;;;;;;;37.31;25.99;99231.88;5006162;28;20021;-74
2021/07/21 08:52:32;;;;;;;7.35;4.72;;;;;;;38.19;25.49;99259.34;5013433;28;20037;-74
2021/07/21 08:55:00;;;;;;;5.32;3.90;;;;;;;36.72;25.30;99249.91;5018458;28;20044;-78
2021/07/21 08:57:28;;;;;;;7.95;4.57;;;;;;;37.36;24.84;99259.75;5023487;28;20038;-77
2021/07/21 08:59:56;;;;;;;5.35;4.18;;;;;;;36.80;25.48;99246.88;5023031;28;20033;-77
2021/07/21 09:02:22;;;;;;;6.00;3.97;;;;;;;37.68;24.58;99234.22;5031861;28;20022;-77
2021/07/21 09:04:47;;;;;;;5.85;4.07;;;;;;;38.07;25.34;99237.78;5032208;28;20033;-77
2021/07/21 09:07:13;;;;;;;6.22;3.72;;;;;;;37.99;24.90;99255.78;5030805;28;20056;-73
2021/07/21 09:09:38;;;;;;;11.20;4.57;;;;;;;38.48;25.00;99255.00;5030975;28;20380;-77
2021/07/21 09:12:06;;;;;;;5.65;4.50;;;;;;;38.34;25.12;99260.41;5032516;28;20418;-73
2021/07/21 09:14:31;;;;;;;;;;;;;;;38.32;24.39;99260.78;5030647;28;20021;-78
2021/07/21 09:17:10;;;;;;;6.60;4.45;;;;;;;37.75;23.11;99258.94;5031749;28;19920;-79
2021/07/21 09:19:41;;;;;;;5.32;3.92;;;;;;;38.23;22.78;99243.28;5032126;28;20119;-75
2021/07/21 09:22:19;;;;;;;6.50;4.10;;;;;;;37.01;24.96;99234.44;5021765;28;20037;-77
2021/07/21 09:24:46;;;;;;;7.93;4.07;;;;;;;37.02;23.96;99259.47;5024545;28;20112;-77
2021/07/21 09:27:12;;;;;;;5.25;3.85;;;;;;;38.29;24.64;99258.72;5027950;28;20040;-74
2021/07/21 09:29:41;;;;;;;6.72;4.15;;;;;;;38.28;25.17;99250.59;5014814;28;20025;-74
2021/07/21 09:32:07;;;;;;;7.78;4.43;;;;;;;37.69;24.61;99259.25;5032407;28;20025;-70
2021/07/21 09:34:34;;;;;;;9.15;4.35;;;;;;;38.04;23.13;99246.97;5019622;28;20034;-75
2021/07/21 09:37:07;;;;;;;7.78;4.10;;;;;;;37.98;24.74;99258.97;5015710;28;20044;-71
2021/07/21 09:39:37;;;;;;;5.53;3.65;;;;;;;39.06;23.08;99258.69;5026460;28;20038;-71
2021/07/21 09:42:05;;;;;;;5.90;4.10;;;;;;;38.31;24.22;99261.19;5015318;28;20035;-71
2021/07/21 09:44:42;;;;;;;6.10;3.97;;;;;;;37.62;24.06;99247.81;5031315;28;20491;-71
2021/07/21 09:47:27;;;;;;;4.40;3.90;;;;;;;38.18;25.04;99256.91;5026861;28;20079;-68
2021/07/21 09:50:11;;;;;;;6.45;4.38;;;;;;;38.36;24.87;99256.00;5016951;28;20026;-72
2021/07/21 09:52:45;;;;;;;5.10;4.10;;;;;;;37.94;25.35;99241.94;5033798;28;20033;-75
2021/07/21 09:55:14;;;;;;;8.05;4.35;;;;;;;37.74;25.62;99257.31;5024400;28;20033;-72
2021/07/21 09:57:40;;;;;;;5.90;4.18;;;;;;;37.35;26.21;99248.88;5031028;28;20029;-74
2021/07/21 10:00:18;;;;;;;4.85;4.25;;;;;;;37.41;25.78;99259.47;5033777;28;20040;-74
2021/07/21 10:02:45;;;;;;;6.63;4.07;;;;;;;38.62;24.70;99259.25;5033671;28;20506;-75
2021/07/21 10:05:11;;;;;;;4.97;4.10;;;;;;;39.27;23.74;99260.97;5033421;28;20033;-71
2021/07/21 10:10:12;;;;;;;5.37;4.00;;;;;;;37.52;25.91;99254.09;5034096;28;20089;-71
2021/07/21 10:12:38;;;;;;;6.30;4.32;;;;;;;37.89;25.11;99234.59;5015513;28;20379;-73
2021/07/21 10:15:04;;;;;;;7.88;4.25;;;;;;;38.20;23.68;99261.00;5032731;28;20029;-69
2021/07/21 10:17:29;;;;;;;6.10;4.10;;;;;;;37.96;24.74;99262.13;5032066;28;20033;-70
2021/07/21 10:19:56;;;;;;;6.60;4.25;;;;;;;38.90;24.56;99256.03;5033280;28;20108;-72
2021/07/21 10:22:21;;;;;;;7.05;4.75;;;;;;;38.74;23.39;99248.53;5033500;28;20040;-69
2021/07/21 10:24:47;;;;;;;7.70;4.10;;;;;;;38.03;24.06;99255.84;5032693;28;20022;-69
2021/07/21 10:27:15;;;;;;;6.60;4.82;;;;;;;38.31;24.65;99258.34;5032926;28;20017;-69
2021/07/21 10:29:42;;;;;;;5.28;4.05;;;;;;;39.37;23.05;99255.47;5034151;28;20021;-70
2021/07/21 10:32:07;;;;;;;8.23;4.45;;;;;;;38.74;23.56;99259.84;5033989;28;20112;-70
2021/07/21 10:34:33;;;;;;;7.13;4.55;;;;;;;37.66;25.93;99233.78;5035083;28;20483;-67
2021/07/21 10:36:59;;;;;;;6.43;4.47;;;;;;;37.91;23.44;99248.34;5033803;28;20025;-67
2021/07/21 10:39:34;;;;;;;5.53;3.80;;;;;;;38.75;24.11;99235.19;5032262;28;20035;-67
2021/07/21 10:42:08;;;;;;;8.02;4.30;;;;;;;38.65;24.24;99253.66;5028719;28;20159;-67
2021/07/21 10:44:34;;;;;;;6.38;4.32;;;;;;;38.65;23.78;99244.38;5030614;28;20686;-68
2021/07/21 10:47:00;;;;;;;7.13;4.55;;;;;;;37.47;24.62;99249.53;5030861;28;20033;-67
2021/07/21 10:49:41;;;;;;;5.82;4.50;;;;;;;37.66;25.56;99248.69;5032690;28;20040;-68
2021/07/21 10:54:52;;;;;;;5.28;4.20;;;;;;;38.08;24.53;99230.09;5021131;28;20377;-68
2021/07/21 11:00:15;;;;;;;6.97;4.68;;;;;;;37.50;26.13;99243.16;5031781;28;20098;-70
2021/07/21 11:02:42;;;;;;;7.53;4.40;;;;;;;37.94;25.33;99239.13;5025486;28;20029;-70
2021/07/21 11:05:30;;;;;;;7.40;4.13;;;;;;;38.44;24.59;99245.66;5030969;28;20108;-68
2021/07/21 11:07:56;;;;;;;6.07;4.32;;;;;;;39.19;22.69;99243.88;5030234;28;20112;-67
2021/07/21 11:10:42;;;;;;;6.13;4.30;;;;;;;38.91;23.11;99235.88;5029742;28;20044;-67
2021/07/21 11:13:13;;;;;;;5.78;4.35;;;;;;;38.47;24.85;99235.59;5020766;28;20021;-70
2021/07/21 11:15:45;;;;;;;7.40;5.07;;;;;;;37.87;24.08;99236.16;5029074;28;20078;-67
2021/07/21 11:18:34;;;;;;;5.93;4.55;;;;;;;37.09;25.36;99232.59;5029468;28;20034;-70
2021/07/21 11:21:13;;;;;;;8.35;4.63;;;;;;;38.83;24.05;99234.13;5013425;28;20029;-69
2021/07/21 11:23:53;;;;;;;5.35;4.32;;;;;;;38.54;24.60;99230.03;5029167;28;20033;-68
2021/07/21 11:26:31;;;;;;;6.80;4.47;;;;;;;38.89;23.23;99238.25;5029468;28;20109;-69
2021/07/21 11:29:17;;;;;;;5.30;4.43;;;;;;;39.04;23.89;99229.94;5028239;28;20031;-69
2021/07/21 11:31:49;;;;;;;6.10;4.30;;;;;;;38.46;23.89;99239.63;5018412;28;20046;-69
2021/07/21 11:34:15;;;;;;;7.28;4.57;;;;;;;38.63;23.94;99247.56;5028262;28;20076;-69
2021/07/21 11:36:46;;;;;;;6.07;4.50;;;;;;;39.74;23.34;99236.84;5029496;28;20116;-69
2021/07/21 11:39:32;;;;;;;6.88;4.72;;;;;;;39.92;22.33;99232.19;5029670;28;20025;-68
2021/07/21 11:41:58;;;;;;;5.15;4.38;;;;;;;39.35;23.49;99246.53;5012043;28;20033;-69
2021/07/21 11:44:29;;;;;;;6.10;4.40;;;;;;;39.73;23.36;99236.03;5027734;28;20573;-68